Time;durP1;ratioP1;P1;durP2;ratioP2;P2;SDS_P1;SDS_P2;PMS_P1;PMS_P2;Temp;Humidity;BMP_temperature;BMP_pressure;BME280_temperature;BME280_humidity;BME280_pressure;Samples;Min_cycle;Max_cycle;Signal;HPM_P1;HPM_P2
2023/12/12 00:00:24;;;;;;;3.07;2.77;;;6.60;90.10;;;;;;4836604;29;20234;-85
2023/12/12 00:02:53;;;;;;;3.00;2.73;;;6.60;90.10;;;;;;4834896;29;20308;-85
2023/12/12 00:05:21;;;;;;;5.57;2.77;;;6.50;90.10;;;;;;4834746;29;20573;-85
2023/12/12 00:07:50;;;;;;;2.20;2.07;;;6.50;90.10;;;;;;4833030;29;20210;-85
2023/12/12 00:10:18;;;;;;;2.30;2.20;;;6.50;90.10;;;;;;4834127;29;20583;-85
2023/12/12 00:12:47;;;;;;;2.33;2.13;;;6.50;90.10;;;;;;4836726;29;20593;-84
2023/12/12 00:15:17;;;;;;;6.63;4.00;;;6.50;90.10;;;;;;4829013;29;20224;-85
2023/12/12 00:17:46;;;;;;;3.67;3.03;;;6.50;90.10;;;;;;4830124;29;20235;-86
2023/12/12 00:22:57;;;;;;;4.87;3.73;;;6.50;90.10;;;;;;4835718;29;20218;-86
2023/12/12 00:28:08;;;;;;;1.17;1.13;;;6.50;90.10;;;;;;4834670;29;20206;-86
2023/12/12 00:30:38;;;;;;;7.57;4.30;;;6.50;90.20;;;;;;4838786;29;20700;-85
2023/12/12 00:33:07;;;;;;;3.90;3.53;;;6.40;90.20;;;;;;4837160;29;20209;-86
2023/12/12 00:35:49;;;;;;;3.27;2.97;;;6.40;90.20;;;;;;4837043;29;20289;-84
2023/12/12 00:38:17;;;;;;;5.93;4.00;;;6.40;90.20;;;;;;4836830;29;20214;-86
2023/12/12 00:40:53;;;;;;;5.53;3.60;;;6.40;90.30;;;;;;4835712;29;20204;-85
2023/12/12 00:46:06;;;;;;;2.60;2.37;;;6.30;90.20;;;;;;4832388;29;20297;-85
2023/12/12 00:51:18;;;;;;;2.83;2.63;;;6.30;90.30;;;;;;4833339;29;20388;-86
2023/12/12 00:53:46;;;;;;;3.33;3.10;;;6.30;90.30;;;;;;4836312;29;20228;-86
2023/12/12 00:56:15;;;;;;;2.63;2.23;;;6.20;90.30;;;;;;4837245;29;20269;-86
2023/12/12 00:58:43;;;;;;;4.93;3.93;;;6.20;90.40;;;;;;4839389;29;20216;-85
2023/12/12 01:01:14;;;;;;;2.83;2.40;;;6.10;90.40;;;;;;4836056;29;20580;-86
2023/12/12 01:03:43;;;;;;;4.00;3.43;;;6.10;90.50;;;;;;4833724;29;20210;-85
2023/12/12 01:06:22;;;;;;;5.90;2.87;;;6.10;90.50;;;;;;4831857;29;20637;-84
2023/12/12 01:08:56;;;;;;;3.47;3.27;;;6.10;90.50;;;;;;4836211;29;20297;-84
2023/12/12 01:11:24;;;;;;;1.93;1.80;;;6.10;90.50;;;;;;4832317;29;20642;-84
2023/12/12 01:13:53;;;;;;;3.50;2.47;;;6.10;90.60;;;;;;4832968;29;20213;-84
2023/12/12 01:16:23;;;;;;;2.83;2.63;;;6.00;90.60;;;;;;4833180;29;20692;-84
2023/12/12 01:18:54;;;;;;;3.50;1.73;;;6.00;90.60;;;;;;4826348;29;20254;-83
2023/12/12 01:21:23;;;;;;;1.83;1.73;;;6.00;90.70;;;;;;4833186;29;20211;-83
2023/12/12 01:23:51;;;;;;;1.77;1.67;;;6.00;90.70;;;;;;4837988;29;20236;-83
2023/12/12 01:26:22;;;;;;;2.50;2.30;;;5.90;90.80;;;;;;4834971;29;20241;-85
2023/12/12 01:28:51;;;;;;;5.27;2.83;;;5.90;90.80;;;;;;4834357;29;20243;-87
2023/12/12 01:31:20;;;;;;;2.73;1.90;;;5.90;90.90;;;;;;4833167;29;20323;-87
2023/12/12 01:33:52;;;;;;;2.87;2.40;;;5.90;90.90;;;;;;4836809;29;20229;-87
2023/12/12 01:36:20;;;;;;;3.20;2.97;;;5.90;91.30;;;;;;4837728;29;20213;-87
2023/12/12 01:38:49;;;;;;;0.97;0.97;;;5.90;90.90;;;;;;4840588;29;20673;-85
2023/12/12 01:41:18;;;;;;;4.50;4.10;;;5.90;91.00;;;;;;4837994;29;20208;-86
2023/12/12 01:43:47;;;;;;;4.07;3.33;;;5.80;91.10;;;;;;4836038;29;20587;-87
2023/12/12 01:46:19;;;;;;;3.03;2.53;;;5.90;91.20;;;;;;4835388;29;20214;-88
2023/12/12 01:48:50;;;;;;;3.47;2.67;;;5.90;91.20;;;;;;4832785;29;20813;-87
2023/12/12 01:51:19;;;;;;;4.57;2.93;;;5.80;91.20;;;;;;4833815;29;20243;-88
2023/12/12 01:53:49;;;;;;;9.43;3.60;;;5.80;91.20;;;;;;4838687;29;20213;-86
2023/12/12 01:56:18;;;;;;;2.67;2.47;;;5.90;91.20;;;;;;4831373;29;20726;-87
2023/12/12 01:58:50;;;;;;;3.57;2.00;;;5.90;91.20;;;;;;4837497;29;20203;-87
2023/12/12 02:01:21;;;;;;;2.03;1.47;;;5.80;91.20;;;;;;4835095;29;20220;-88
2023/12/12 02:03:53;;;;;;;2.00;1.80;;;5.90;91.20;;;;;;4839979;29;20237;-87
2023/12/12 02:06:23;;;;;;;2.20;2.03;;;5.80;91.20;;;;;;4830500;29;20290;-87
2023/12/12 02:08:52;;;;;;;1.93;1.73;;;5.80;91.30;;;;;;4835604;29;20250;-87
2023/12/12 02:11:21;;;;;;;2.97;2.77;;;5.90;91.30;;;;;;4833145;29;20231;-87
2023/12/12 02:13:50;;;;;;;5.20;4.00;;;5.90;91.30;;;;;;4837339;29;20210;-87
2023/12/12 02:16:19;;;;;;;2.70;2.50;;;5.90;91.30;;;;;;4836053;29;20271;-88
2023/12/12 02:18:47;;;;;;;3.97;2.90;;;5.90;91.30;;;;;;4833299;29;20202;-87
2023/12/12 02:21:20;;;;;;;1.17;1.17;;;5.90;91.40;;;;;;4831352;29;20567;-88
2023/12/12 02:23:49;;;;;;;1.60;1.50;;;5.90;91.40;;;;;;4836574;29;20664;-87
2023/12/12 02:26:17;;;;;;;3.13;2.83;;;6.00;91.40;;;;;;4832845;29;20232;-88
2023/12/12 02:28:47;;;;;;;2.77;2.57;;;5.90;91.40;;;;;;4839407;29;20236;-86
2023/12/12 02:31:17;;;;;;;3.53;3.23;;;5.90;91.40;;;;;;4839213;29;20325;-86
2023/12/12 02:33:45;;;;;;;2.13;1.93;;;5.90;91.40;;;;;;4840801;29;20232;-85
2023/12/12 02:36:15;;;;;;;3.23;2.97;;;6.00;91.50;;;;;;4840500;29;20209;-87
2023/12/12 02:38:45;;;;;;;2.00;1.77;;;6.00;91.50;;;;;;4844459;29;20292;-87
2023/12/12 02:41:14;;;;;;;4.77;3.30;;;6.00;91.60;;;;;;4840166;29;20216;-86
2023/12/12 02:43:43;;;;;;;2.20;2.00;;;6.00;91.60;;;;;;4834370;29;20557;-86
2023/12/12 02:46:11;;;;;;;2.87;2.67;;;6.00;91.70;;;;;;4839435;29;20214;-87
2023/12/12 02:48:40;;;;;;;4.83;2.87;;;6.00;91.70;;;;;;4833052;29;20225;-85
2023/12/12 02:51:08;;;;;;;3.43;3.13;;;6.10;91.70;;;;;;4830810;29;20287;-85
2023/12/12 02:53:37;;;;;;;2.40;2.03;;;6.10;91.80;;;;;;4838623;29;20298;-85
2023/12/12 02:56:07;;;;;;;4.43;3.97;;;6.20;91.90;;;;;;4836910;29;20209;-84
2023/12/12 02:58:36;;;;;;;16.83;3.20;;;6.30;91.90;;;;;;4831819;29;20569;-87
2023/12/12 03:01:05;;;;;;;2.07;1.93;;;6.30;91.80;;;;;;4836676;29;20210;-87
2023/12/12 03:03:33;;;;;;;1.70;1.60;;;6.40;91.80;;;;;;4837617;29;20551;-86
2023/12/12 03:06:02;;;;;;;5.37;3.10;;;6.40;91.80;;;;;;4839325;29;20652;-87
2023/12/12 03:08:31;;;;;;;2.10;1.97;;;6.50;91.80;;;;;;4824140;29;20211;-87
2023/12/12 03:10:59;;;;;;;3.80;2.33;;;6.50;91.80;;;;;;4839346;29;20320;-86
2023/12/12 03:13:29;;;;;;;1.70;1.60;;;6.50;92.00;;;;;;4835635;29;20213;-86
2023/12/12 03:15:58;;;;;;;4.33;3.33;;;6.60;92.20;;;;;;4829854;29;20617;-87
2023/12/12 03:18:26;;;;;;;2.43;2.13;;;6.60;92.20;;;;;;4836239;29;20285;-84
2023/12/12 03:20:55;;;;;;;5.60;3.27;;;6.60;92.20;;;;;;4834127;29;20259;-85
2023/12/12 03:23:24;;;;;;;3.20;3.00;;;6.60;92.20;;;;;;4829227;29;20214;-85
2023/12/12 03:25:52;;;;;;;2.87;2.67;;;6.60;92.60;;;;;;4836718;29;20234;-85
2023/12/12 03:28:21;;;;;;;1.97;1.87;;;6.70;92.30;;;;;;4837808;29;20218;-83
2023/12/12 03:30:51;;;;;;;4.23;2.20;;;6.70;92.40;;;;;;4830179;29;20213;-86
2023/12/12 03:33:20;;;;;;;3.47;3.17;;;6.80;92.50;;;;;;4837420;29;20202;-84
2023/12/12 03:35:48;;;;;;;3.23;2.13;;;6.70;92.70;;;;;;4838672;29;20209;-83
2023/12/12 03:38:17;;;;;;;4.47;3.30;;;6.70;93.00;;;;;;4836181;29;20752;-85
2023/12/12 03:40:46;;;;;;;4.80;3.90;;;6.70;93.10;;;;;;4837939;29;20218;-84
2023/12/12 03:43:14;;;;;;;5.07;3.63;;;6.80;93.20;;;;;;4837849;29;20210;-85
2023/12/12 03:45:43;;;;;;;5.13;2.90;;;6.80;93.30;;;;;;4834310;29;20211;-84
2023/12/12 03:48:13;;;;;;;11.33;3.07;;;6.80;93.40;;;;;;4836880;29;20213;-85
2023/12/12 03:50:42;;;;;;;3.93;3.47;;;6.90;93.40;;;;;;4833997;29;20214;-85
2023/12/12 03:53:10;;;;;;;2.30;1.63;;;6.80;93.50;;;;;;4834760;29;20226;-85
2023/12/12 03:55:39;;;;;;;4.80;3.67;;;6.90;93.70;;;;;;4828366;29;20196;-84
2023/12/12 03:58:08;;;;;;;2.97;2.73;;;6.90;93.70;;;;;;4840498;29;20255;-82
2023/12/12 04:00:36;;;;;;;4.63;3.70;;;7.00;93.90;;;;;;4831500;29;20692;-85
2023/12/12 04:03:05;;;;;;;3.77;2.83;;;7.00;93.80;;;;;;4837981;29;20425;-85
2023/12/12 04:05:35;;;;;;;14.33;3.70;;;7.10;93.70;;;;;;4828577;29;20309;-85
2023/12/12 04:08:04;;;;;;;4.33;3.00;;;7.20;93.60;;;;;;4833699;29;20201;-86
2023/12/12 04:10:33;;;;;;;6.47;2.97;;;7.30;93.60;;;;;;4828572;29;20294;-85
2023/12/12 04:13:02;;;;;;;4.63;4.23;;;7.30;93.50;;;;;;4835374;29;20226;-85
2023/12/12 04:15:31;;;;;;;3.40;2.73;;;7.40;93.50;;;;;;4836271;29;20203;-85
2023/12/12 04:18:00;;;;;;;3.00;2.13;;;7.50;93.40;;;;;;4836744;29;20205;-85
2023/12/12 04:20:29;;;;;;;5.53;2.60;;;7.50;93.30;;;;;;4833918;29;20297;-85
2023/12/12 04:22:59;;;;;;;2.33;2.13;;;7.60;93.30;;;;;;4838068;29;20233;-85
2023/12/12 04:25:28;;;;;;;4.93;3.30;;;7.60;93.30;;;;;;4831987;29;20221;-84
2023/12/12 04:27:56;;;;;;;2.50;2.30;;;7.60;93.20;;;;;;4834203;29;20574;-85
2023/12/12 04:30:25;;;;;;;2.77;1.30;;;7.70;93.10;;;;;;4832977;29;20210;-85
2023/12/12 04:32:54;;;;;;;2.00;1.80;;;7.70;93.10;;;;;;4833476;29;20233;-83
2023/12/12 04:35:23;;;;;;;1.23;1.13;;;7.80;93.00;;;;;;4837401;29;20214;-84
2023/12/12 04:37:51;;;;;;;2.63;2.23;;;7.80;93.30;;;;;;4837988;29;20684;-85
2023/12/12 04:40:24;;;;;;;2.47;2.27;;;7.80;92.90;;;;;;4833241;29;20304;-84
2023/12/12 04:42:53;;;;;;;1.63;1.53;;;7.80;92.90;;;;;;4832711;29;20207;-84
2023/12/12 04:45:22;;;;;;;1.37;1.27;;;7.90;92.90;;;;;;4832748;29;20297;-83
2023/12/12 04:47:50;;;;;;;3.67;1.73;;;7.90;92.80;;;;;;4831152;29;20234;-84
2023/12/12 04:50:19;;;;;;;3.47;1.87;;;7.90;92.80;;;;;;4830155;29;20203;-83
2023/12/12 04:52:48;;;;;;;4.47;2.10;;;7.90;92.80;;;;;;4832663;29;20231;-84
2023/12/12 04:55:17;;;;;;;0.93;0.93;;;8.00;92.80;;;;;;4834919;29;20929;-84
2023/12/12 04:57:47;;;;;;;2.67;1.93;;;8.00;92.70;;;;;;4829811;29;20263;-86
2023/12/12 05:00:16;;;;;;;2.53;2.05;;;8.00;92.70;;;;;;4826147;29;20467;-84
2023/12/12 05:02:45;;;;;;;1.60;1.50;;;8.10;92.80;;;;;;4828464;29;20285;-85
2023/12/12 05:05:14;;;;;;;3.13;2.70;;;8.10;92.80;;;;;;4832106;29;20215;-86
2023/12/12 05:07:43;;;;;;;0.50;0.50;;;8.20;92.80;;;;;;4837048;29;20210;-88
2023/12/12 05:10:11;;;;;;;4.67;1.40;;;8.30;92.80;;;;;;4837428;29;20218;-86
2023/12/12 05:12:40;;;;;;;4.13;2.93;;;8.20;92.70;;;;;;4836579;29;20251;-88
2023/12/12 05:15:13;;;;;;;4.13;2.93;;;8.30;92.70;;;;;;4827141;29;20214;-87
2023/12/12 05:17:42;;;;;;;2.23;2.03;;;8.30;92.60;;;;;;4836458;29;20382;-88
2023/12/12 05:20:13;;;;;;;1.83;1.73;;;8.30;92.60;;;;;;4833986;29;20213;-87
2023/12/12 05:22:42;;;;;;;1.13;1.13;;;8.30;92.60;;;;;;4828873;29;20210;-82
2023/12/12 05:25:11;;;;;;;2.57;2.10;;;8.30;92.90;;;;;;4825447;29;20225;-84
2023/12/12 05:27:40;;;;;;;8.77;3.33;;;8.20;92.50;;;;;;4834715;29;20321;-82
2023/12/12 05:30:12;;;;;;;2.50;2.15;;;8.30;92.60;;;;;;4830601;29;20469;-82
2023/12/12 05:32:41;;;;;;;2.07;1.87;;;8.20;92.70;;;;;;4830640;29;20227;-83
2023/12/12 05:35:10;;;;;;;3.00;1.97;;;8.20;92.80;;;;;;4830517;29;20202;-82
2023/12/12 05:37:38;;;;;;;3.07;2.87;;;8.20;92.80;;;;;;4831864;29;20210;-82
2023/12/12 05:40:08;;;;;;;4.70;2.77;;;8.20;92.80;;;;;;4831264;29;20214;-86
2023/12/12 05:42:37;;;;;;;4.77;3.43;;;8.20;92.80;;;;;;4837537;29;20635;-85
2023/12/12 05:45:07;;;;;;;6.33;4.57;;;8.20;92.90;;;;;;4835872;29;20293;-88
2023/12/12 05:47:37;;;;;;;5.53;3.40;;;8.10;92.90;;;;;;4835030;29;20206;-87
2023/12/12 05:50:06;;;;;;;3.30;3.00;;;8.10;92.90;;;;;;4830979;29;20657;-86
2023/12/12 05:52:35;;;;;;;10.43;2.97;;;8.10;92.90;;;;;;4837267;29;20237;-87
2023/12/12 05:55:05;;;;;;;4.33;4.00;;;8.00;93.00;;;;;;4834708;29;20206;-85
2023/12/12 06:00:17;;;;;;;3.83;3.33;;;8.00;93.10;;;;;;4833712;29;20594;-85
2023/12/12 06:02:47;;;;;;;2.70;1.77;;;8.00;93.10;;;;;;4834986;29;20313;-84
2023/12/12 06:05:16;;;;;;;2.80;2.60;;;7.90;93.20;;;;;;4831071;29;20202;-86
2023/12/12 06:11:23;;;;;;;3.40;3.13;;;7.80;93.20;;;;;;4833761;29;20694;-88
2023/12/12 06:13:52;;;;;;;4.20;3.80;;;7.80;93.20;;;;;;4830365;29;20243;-85
2023/12/12 06:16:21;;;;;;;2.80;2.30;;;7.80;93.30;;;;;;4839157;29;20293;-87
2023/12/12 06:18:51;;;;;;;4.33;3.07;;;7.80;93.40;;;;;;4831100;29;20199;-91
2023/12/12 06:21:20;;;;;;;3.60;2.73;;;7.80;93.40;;;;;;4833184;29;20282;-88
2023/12/12 06:23:49;;;;;;;3.00;2.17;;;7.80;93.40;;;;;;4832833;29;20207;-90
2023/12/12 06:26:18;;;;;;;4.57;2.17;;;7.80;93.80;;;;;;4835854;29;20238;-89
2023/12/12 06:28:46;;;;;;;3.43;2.97;;;7.80;93.50;;;;;;4839809;29;20730;-91
2023/12/12 06:31:15;;;;;;;1.40;1.30;;;7.80;93.40;;;;;;4832270;29;20218;-88
2023/12/12 06:33:44;;;;;;;5.83;4.20;;;7.80;93.60;;;;;;4842639;29;20227;-90
2023/12/12 06:36:14;;;;;;;2.87;2.53;;;7.80;93.50;;;;;;4836271;29;20251;-88
2023/12/12 06:38:43;;;;;;;1.50;1.43;;;7.80;93.60;;;;;;4837770;29;20302;-91
2023/12/12 06:41:12;;;;;;;4.10;3.17;;;7.80;93.60;;;;;;4844999;29;20202;-93
2023/12/12 06:43:44;;;;;;;1.27;1.17;;;7.80;93.60;;;;;;4841206;29;20218;-86
2023/12/12 06:46:12;;;;;;;5.03;3.77;;;7.80;93.60;;;;;;4844387;29;20634;-87
2023/12/12 06:48:42;;;;;;;8.27;4.97;;;7.90;93.70;;;;;;4843818;29;20228;-91
2023/12/12 06:51:15;;;;;;;2.33;2.13;;;7.90;93.80;;;;;;4844767;29;20198;-88
2023/12/12 06:53:44;;;;;;;2.57;2.37;;;7.80;93.90;;;;;;4848035;29;20232;-92
2023/12/12 06:56:13;;;;;;;4.50;3.13;;;7.90;93.90;;;;;;4842129;29;20202;-86
2023/12/12 06:58:56;;;;;;;2.30;2.10;;;7.80;94.00;;;;;;4841199;29;20210;-84
2023/12/12 07:01:24;;;;;;;7.90;4.00;;;7.80;94.00;;;;;;4837349;29;20654;-84
2023/12/12 07:04:08;;;;;;;2.87;2.67;;;7.80;94.00;;;;;;4838743;29;20229;-87
2023/12/12 07:06:38;;;;;;;5.07;2.87;;;7.80;94.00;;;;;;4834221;29;20661;-83
2023/12/12 07:09:10;;;;;;;6.10;1.90;;;7.80;94.00;;;;;;4839634;29;20202;-85
2023/12/12 07:11:39;;;;;;;4.50;2.63;;;7.80;94.10;;;;;;4835104;29;20211;-84
2023/12/12 07:14:08;;;;;;;4.23;3.40;;;7.80;94.10;;;;;;4834406;29;20229;-84
2023/12/12 07:16:36;;;;;;;3.37;3.03;;;7.80;94.10;;;;;;4840353;29;20211;-83
2023/12/12 07:19:07;;;;;;;6.57;3.30;;;7.80;94.10;;;;;;4840428;29;20467;-82
2023/12/12 07:21:41;;;;;;;4.50;3.20;;;7.80;94.20;;;;;;4838270;29;20215;-87
2023/12/12 07:24:10;;;;;;;3.53;2.93;;;7.90;94.20;;;;;;4835809;29;20562;-86
2023/12/12 07:26:39;;;;;;;4.47;3.07;;;7.90;94.20;;;;;;4841403;29;20222;-86
2023/12/12 07:29:07;;;;;;;5.90;3.80;;;7.90;94.30;;;;;;4840197;29;20206;-85
2023/12/12 07:31:36;;;;;;;6.17;2.80;;;7.90;94.40;;;;;;4837243;29;20213;-83
2023/12/12 07:37:02;;;;;;;1.33;1.30;;;7.90;94.60;;;;;;4832129;29;20690;-82
2023/12/12 07:39:30;;;;;;;2.43;2.23;;;8.00;94.80;;;;;;4829679;29;20207;-83
2023/12/12 07:41:59;;;;;;;3.55;3.25;;;8.00;94.90;;;;;;4835456;29;20478;-84
2023/12/12 07:44:27;;;;;;;3.07;2.77;;;7.90;94.90;;;;;;4834347;29;20218;-82
2023/12/12 07:50:06;;;;;;;5.00;3.63;;;8.00;94.80;;;;;;4834546;29;20246;-84
2023/12/12 07:52:36;;;;;;;3.37;3.07;;;8.10;94.70;;;;;;4833945;29;20215;-86
2023/12/12 07:55:05;;;;;;;10.53;2.50;;;8.10;94.70;;;;;;4835602;29;20226;-83
2023/12/12 08:00:29;;;;;;;4.10;2.87;;;8.20;94.70;;;;;;4835582;29;20890;-86
2023/12/12 08:02:58;;;;;;;8.27;4.07;;;8.20;94.60;;;;;;4835141;29;20213;-86
2023/12/12 08:05:27;;;;;;;5.93;3.53;;;8.20;94.60;;;;;;4837881;29;20253;-84
2023/12/12 08:08:11;;;;;;;10.47;4.87;;;8.20;94.60;;;;;;4838487;29;20259;-82
2023/12/12 08:13:49;;;;;;;6.43;4.63;;;8.20;94.60;;;;;;4833169;29;20222;-83
2023/12/12 08:19:15;;;;;;;13.50;5.73;;;8.30;94.70;;;;;;4836610;29;20685;-86
2023/12/12 08:24:43;;;;;;;4.57;3.17;;;8.30;94.70;;;;;;4836262;29;20601;-86
2023/12/12 08:27:14;;;;;;;10.53;5.50;;;8.30;94.80;;;;;;4833716;29;20433;-85
2023/12/12 08:32:38;;;;;;;10.37;4.83;;;8.40;94.80;;;;;;4838536;29;20214;-88
2023/12/12 08:35:08;;;;;;;3.37;2.80;;;8.50;94.80;;;;;;4825349;29;20234;-83
2023/12/12 08:37:39;;;;;;;8.57;4.13;;;8.40;95.00;;;;;;4833188;29;20586;-86
2023/12/12 08:40:11;;;;;;;3.60;2.80;;;8.40;95.00;;;;;;4834638;29;20210;-85
2023/12/12 08:42:40;;;;;;;9.80;5.40;;;8.40;94.90;;;;;;4833128;29;20216;-84
2023/12/12 08:50:35;;;;;;;4.47;3.33;;;8.60;95.20;;;;;;4830678;29;20651;-85
2023/12/12 08:55:47;;;;;;;7.73;4.73;;;8.70;95.10;;;;;;4835156;29;20227;-81
2023/12/12 08:58:16;;;;;;;5.40;4.90;;;8.80;95.10;;;;;;4837460;29;20214;-84
2023/12/12 09:06:24;;;;;;;4.33;3.60;;;8.90;95.30;;;;;;4831819;29;20297;-83
2023/12/12 09:11:37;;;;;;;2.23;1.80;;;9.00;95.20;;;;;;4836336;29;20216;-85
2023/12/12 09:14:19;;;;;;;4.63;4.20;;;9.10;95.20;;;;;;4829099;29;20238;-85
2023/12/12 09:16:47;;;;;;;3.23;3.00;;;9.20;95.20;;;;;;4835638;29;20645;-85
2023/12/12 09:19:17;;;;;;;6.67;3.50;;;9.10;94.70;;;;;;4837419;29;20529;-88
2023/12/12 09:24:29;;;;;;;3.03;2.47;;;9.30;94.70;;;;;;4834725;29;20211;-86
2023/12/12 09:26:59;;;;;;;4.03;3.47;;;9.30;94.80;;;;;;4833859;29;20231;-87
2023/12/12 09:29:42;;;;;;;3.47;3.17;;;9.30;94.80;;;;;;4834134;29;20214;-85
2023/12/12 09:32:25;;;;;;;5.93;4.33;;;9.30;94.40;;;;;;4832005;29;20697;-87
2023/12/12 09:34:54;;;;;;;4.40;2.80;;;9.50;94.30;;;;;;4828965;29;20694;-87
2023/12/12 09:40:20;;;;;;;4.33;3.87;;;9.60;94.40;;;;;;4836890;29;20214;-88
2023/12/12 09:43:04;;;;;;;3.50;3.17;;;9.70;94.50;;;;;;4831872;29;20209;-86
2023/12/12 09:45:33;;;;;;;5.23;4.13;;;9.70;94.00;;;;;;4829258;29;20214;-88
2023/12/12 09:48:02;;;;;;;3.13;2.77;;;9.80;94.00;;;;;;4832356;29;20207;-84
2023/12/12 09:50:32;;;;;;;4.07;2.75;;;9.80;93.90;;;;;;4835798;29;20435;-88
2023/12/12 09:53:01;;;;;;;8.00;2.90;;;9.90;94.20;;;;;;4834766;29;20657;-87
2023/12/12 09:55:44;;;;;;;4.10;3.57;;;9.90;93.90;;;;;;4837526;29;20671;-86
2023/12/12 10:00:57;;;;;;;4.73;3.13;;;10.00;93.50;;;;;;4835734;29;20633;-87
2023/12/12 10:03:28;;;;;;;3.67;2.93;;;10.10;93.60;;;;;;4836951;29;20210;-88
2023/12/12 10:06:00;;;;;;;4.43;3.20;;;10.10;93.40;;;;;;4838583;29;20669;-86
2023/12/12 10:08:43;;;;;;;5.33;3.47;;;10.10;92.90;;;;;;4836538;29;20217;-89
2023/12/12 10:11:11;;;;;;;3.33;2.27;;;10.20;92.70;;;;;;4836860;29;20236;-86
2023/12/12 10:13:58;;;;;;;10.07;4.10;;;10.30;92.50;;;;;;4835064;29;20206;-86
2023/12/12 10:16:27;;;;;;;3.30;2.80;;;10.30;92.20;;;;;;4837302;29;20230;-87
2023/12/12 10:18:56;;;;;;;4.77;3.00;;;10.30;92.30;;;;;;4841470;29;20210;-90
2023/12/12 10:21:39;;;;;;;6.87;3.27;;;10.40;92.50;;;;;;4834015;29;20213;-89
2023/12/12 10:24:07;;;;;;;5.33;2.13;;;10.50;92.10;;;;;;4835273;29;20216;-86
2023/12/12 10:26:36;;;;;;;3.67;3.07;;;10.50;92.20;;;;;;4840213;29;20226;-82
2023/12/12 10:29:06;;;;;;;4.03;2.70;;;10.50;92.40;;;;;;4839894;29;20199;-82
2023/12/12 10:31:36;;;;;;;4.33;3.70;;;10.60;92.30;;;;;;4838829;29;20297;-83
2023/12/12 10:36:49;;;;;;;2.43;1.87;;;10.70;92.00;;;;;;4829244;29;20257;-85
2023/12/12 10:39:31;;;;;;;2.33;1.70;;;10.70;92.00;;;;;;4836199;29;20204;-84
2023/12/12 10:42:00;;;;;;;11.83;3.47;;;10.80;92.10;;;;;;4834193;29;20757;-86
2023/12/12 10:44:34;;;;;;;3.60;3.13;;;10.90;92.00;;;;;;4840757;29;20212;-86
2023/12/12 10:47:08;;;;;;;6.80;3.47;;;11.00;91.90;;;;;;4838686;29;20653;-82
2023/12/12 10:49:40;;;;;;;4.87;4.47;;;11.00;91.40;;;;;;4838362;29;20713;-84
2023/12/12 10:52:11;;;;;;;2.87;2.40;;;11.00;91.60;;;;;;4841303;29;20195;-83
2023/12/12 10:54:43;;;;;;;11.50;2.77;;;11.00;91.50;;;;;;4841770;29;20273;-87
2023/12/12 10:57:13;;;;;;;5.07;3.00;;;11.10;91.60;;;;;;4841853;29;20222;-87
2023/12/12 10:59:43;;;;;;;0.93;0.93;;;11.10;91.50;;;;;;4841071;29;20692;-88
2023/12/12 11:02:31;;;;;;;2.83;2.63;;;11.20;91.30;;;;;;4833712;29;20209;-88
2023/12/12 11:05:01;;;;;;;2.77;2.33;;;11.30;91.40;;;;;;4840303;29;20213;-86
2023/12/12 11:07:30;;;;;;;3.90;3.37;;;11.30;91.10;;;;;;4840479;29;20212;-87
2023/12/12 11:10:00;;;;;;;5.73;3.73;;;11.40;91.20;;;;;;4835617;29;20210;-88
2023/12/12 11:12:29;;;;;;;3.50;2.57;;;11.40;91.20;;;;;;4839385;29;20214;-85
2023/12/12 11:15:00;;;;;;;4.63;2.90;;;11.40;90.90;;;;;;4841161;29;20349;-82
2023/12/12 11:20:13;;;;;;;11.90;4.60;;;11.50;91.10;;;;;;4839038;29;20214;-86
2023/12/12 11:22:43;;;;;;;3.50;3.20;;;11.60;90.90;;;;;;4837620;29;20203;-90
2023/12/12 11:25:19;;;;;;;3.77;2.37;;;11.60;90.70;;;;;;4841351;29;20214;-90
2023/12/12 11:28:03;;;;;;;3.38;2.42;;;11.70;90.90;;;;;;4837676;29;20443;-86
2023/12/12 11:30:38;;;;;;;5.77;2.40;;;11.80;90.60;;;;;;4839172;29;20666;-88
2023/12/12 11:33:07;;;;;;;1.47;1.30;;;11.80;90.70;;;;;;4838792;29;20671;-88
2023/12/12 11:35:36;;;;;;;2.63;1.93;;;11.90;90.40;;;;;;4842731;29;20303;-91
2023/12/12 11:38:06;;;;;;;4.87;2.30;;;11.90;90.40;;;;;;4833597;29;20479;-94
2023/12/12 11:40:37;;;;;;;5.43;2.63;;;12.00;90.40;;;;;;4836406;29;20258;-88
2023/12/12 11:43:20;;;;;;;4.43;2.83;;;12.00;89.90;;;;;;4841348;29;20638;-90
2023/12/12 11:45:51;;;;;;;10.37;3.50;;;12.00;89.50;;;;;;4838085;29;20214;-87
2023/12/12 11:48:19;;;;;;;3.37;2.00;;;12.00;89.30;;;;;;4828833;29;20704;-90
2023/12/12 11:50:49;;;;;;;4.43;3.20;;;12.00;89.50;;;;;;4836842;29;20698;-88
2023/12/12 11:53:39;;;;;;;10.07;3.23;;;12.10;89.90;;;;;;4830965;29;20576;-87
2023/12/12 11:56:08;;;;;;;2.70;2.10;;;12.10;90.00;;;;;;4838375;29;20230;-90
2023/12/12 11:58:38;;;;;;;7.43;4.80;;;12.10;89.70;;;;;;4834177;29;20214;-88
2023/12/12 12:01:08;;;;;;;4.03;2.70;;;12.10;89.70;;;;;;4835058;29;20682;-87
2023/12/12 12:03:37;;;;;;;3.17;2.87;;;12.20;89.70;;;;;;4837328;29;20684;-89
2023/12/12 12:06:07;;;;;;;11.33;2.77;;;12.10;89.40;;;;;;4835777;29;20207;-88
2023/12/12 12:14:23;;;;;;;5.23;2.87;;;12.30;89.80;;;;;;4839262;29;20210;-92
2023/12/12 12:16:58;;;;;;;3.43;2.60;;;12.30;89.60;;;;;;4838587;29;20325;-92
2023/12/12 12:19:40;;;;;;;7.10;3.63;;;12.30;89.00;;;;;;4841545;29;20221;-91
2023/12/12 12:22:13;;;;;;;3.13;2.20;;;12.40;88.80;;;;;;4839947;29;20269;-90
2023/12/12 12:24:43;;;;;;;3.57;3.23;;;12.40;88.90;;;;;;4836308;29;20202;-89
2023/12/12 12:27:13;;;;;;;4.63;4.03;;;12.40;88.90;;;;;;4840724;29;20344;-88
2023/12/12 12:29:42;;;;;;;5.30;3.27;;;12.50;88.60;;;;;;4839245;29;20211;-90
2023/12/12 12:32:13;;;;;;;2.63;2.33;;;12.50;88.40;;;;;;4835241;29;20263;-89
2023/12/12 12:34:42;;;;;;;5.23;3.23;;;12.50;88.20;;;;;;4840519;29;20214;-86
2023/12/12 12:37:33;;;;;;;2.63;2.17;;;12.50;88.30;;;;;;4835059;29;20487;-87
2023/12/12 12:43:00;;;;;;;4.00;2.37;;;12.60;88.40;;;;;;4836160;29;20198;-90
2023/12/12 12:45:29;;;;;;;4.03;3.40;;;12.50;87.70;;;;;;4836096;29;20214;-86
2023/12/12 12:47:59;;;;;;;2.50;2.30;;;12.50;87.60;;;;;;4849928;29;20224;-83
2023/12/12 12:50:28;;;;;;;8.03;3.87;;;12.50;87.50;;;;;;4829239;29;20210;-83
2023/12/12 12:52:58;;;;;;;3.53;2.77;;;12.50;87.70;;;;;;4836024;29;20214;-87
2023/12/12 12:55:26;;;;;;;4.87;2.77;;;12.60;88.20;;;;;;4835464;29;20310;-89
2023/12/12 12:57:55;;;;;;;5.67;3.77;;;12.60;88.10;;;;;;4830246;29;20230;-88
2023/12/12 13:00:26;;;;;;;4.03;2.17;;;12.70;88.70;;;;;;4838656;29;20211;-88
2023/12/12 13:02:55;;;;;;;3.37;2.43;;;12.90;89.60;;;;;;4833967;29;20198;-87
2023/12/12 13:05:26;;;;;;;5.00;3.20;;;13.20;89.70;;;;;;4833961;29;20210;-87
2023/12/12 13:07:54;;;;;;;3.67;2.63;;;13.50;90.10;;;;;;4838729;29;20229;-85
2023/12/12 13:10:24;;;;;;;5.00;3.53;;;13.60;88.50;;;;;;4835668;29;20644;-82
2023/12/12 13:13:11;;;;;;;6.90;3.37;;;13.70;86.20;;;;;;4833724;29;20207;-87
2023/12/12 13:15:40;;;;;;;4.03;1.80;;;13.80;86.40;;;;;;4830824;29;20202;-86
2023/12/12 13:18:08;;;;;;;2.43;2.13;;;13.80;83.80;;;;;;4837760;29;20297;-85
2023/12/12 13:20:41;;;;;;;4.90;3.50;;;13.90;82.70;;;;;;4834412;29;20207;-87
2023/12/12 13:23:09;;;;;;;12.83;3.13;;;13.90;82.20;;;;;;4835604;29;20268;-88
2023/12/12 13:25:38;;;;;;;3.43;1.63;;;14.30;82.30;;;;;;4834505;29;20245;-85
2023/12/12 13:28:07;;;;;;;5.90;2.33;;;15.90;80.00;;;;;;4837141;29;20218;-84
2023/12/12 13:30:36;;;;;;;4.00;2.27;;;17.20;76.40;;;;;;4835566;29;20195;-84
2023/12/12 13:33:09;;;;;;;2.53;2.27;;;16.90;74.10;;;;;;4833410;29;20683;-83
2023/12/12 13:35:39;;;;;;;4.90;2.73;;;16.80;75.50;;;;;;4836093;29;20301;-84
2023/12/12 13:38:22;;;;;;;6.57;1.98;;;17.30;75.60;;;;;;4829811;29;20222;-84
2023/12/12 13:40:50;;;;;;;4.13;2.28;;;17.80;73.90;;;;;;4829924;29;20210;-81
2023/12/12 13:43:19;;;;;;;5.45;3.25;;;18.30;72.10;;;;;;4832276;29;20616;-83
2023/12/12 13:46:02;;;;;;;6.05;3.35;;;19.10;70.00;;;;;;4836597;29;20194;-83
2023/12/12 13:48:30;;;;;;;4.10;1.27;;;19.70;65.50;;;;;;4836455;29;20209;-83
2023/12/12 13:51:14;;;;;;;2.65;1.33;;;19.70;66.50;;;;;;4833044;29;20202;-84
2023/12/12 13:53:50;;;;;;;2.20;1.80;;;19.50;67.10;;;;;;4836718;29;20228;-84
2023/12/12 13:59:15;;;;;;;3.58;2.75;;;19.00;67.40;;;;;;4835899;29;20214;-85
2023/12/12 14:01:43;;;;;;;3.78;1.63;;;18.40;67.20;;;;;;4835687;29;20205;-87
2023/12/12 14:07:09;;;;;;;2.00;1.80;;;17.30;67.50;;;;;;4841011;29;20206;-84
2023/12/12 14:18:26;;;;;;;2.83;2.23;;;15.30;71.60;;;;;;4837910;29;20663;-81
2023/12/12 14:24:23;;;;;;;2.83;1.90;;;14.50;73.80;;;;;;4836099;29;20415;-84
2023/12/12 14:26:52;;;;;;;6.07;3.63;;;14.20;74.70;;;;;;4837481;29;20238;-84
2023/12/12 14:29:20;;;;;;;6.77;2.33;;;13.90;76.00;;;;;;4840358;29;20221;-84
2023/12/12 14:31:51;;;;;;;2.97;2.70;;;13.60;76.70;;;;;;4838028;29;20205;-85
2023/12/12 14:34:20;;;;;;;3.20;2.53;;;13.30;77.50;;;;;;4840201;29;20202;-83
2023/12/12 14:36:48;;;;;;;3.63;3.33;;;13.10;78.20;;;;;;4840592;29;20226;-84
2023/12/12 14:39:17;;;;;;;5.93;3.53;;;12.90;78.60;;;;;;4834414;29;20259;-84
2023/12/12 14:41:47;;;;;;;5.07;3.17;;;12.70;79.10;;;;;;4833933;29;20465;-83
2023/12/12 14:44:15;;;;;;;4.17;3.13;;;12.50;79.80;;;;;;4836413;29;20289;-84